Time;durP1;ratioP1;P1;durP2;ratioP2;P2;SDS_P1;SDS_P2;PMS_P1;PMS_P2;Temp;Humidity;BMP_temperature;BMP_pressure;BME280_temperature;BME280_humidity;BME280_pressure;Samples;Min_cycle;Max_cycle;Signal;HPM_P1;HPM_P2
2023/04/28 00:00:12;;;;;;;8.40;1.40;;;37.60;17.00;;;;;;5063138;28;20021;-64
2023/04/28 00:02:38;;;;;;;5.55;1.30;;;37.60;16.80;;;;;;5065711;28;20052;-62
2023/04/28 00:05:05;;;;;;;5.82;1.80;;;37.50;17.10;;;;;;5066543;28;20079;-63
2023/04/28 00:07:32;;;;;;;2.80;1.02;;;37.40;17.00;;;;;;5067401;28;20822;-62
2023/04/28 00:09:58;;;;;;;6.20;1.20;;;37.40;16.40;;;;;;5066553;28;20032;-63
2023/04/28 00:12:24;;;;;;;5.15;1.95;;;37.20;16.80;;;;;;5070281;28;20032;-63
2023/04/28 00:14:51;;;;;;;3.33;1.92;;;37.20;17.40;;;;;;5066202;28;20553;-59
2023/04/28 00:17:17;;;;;;;9.75;5.00;;;37.20;17.60;;;;;;5069141;28;20408;-61
2023/04/28 00:19:44;;;;;;;7.53;3.00;;;37.20;17.10;;;;;;5075187;28;20032;-62
2023/04/28 00:22:10;;;;;;;9.70;1.88;;;37.20;17.20;;;;;;5066701;28;20021;-61
2023/04/28 00:24:36;;;;;;;6.15;1.10;;;37.10;17.80;;;;;;5074119;28;20103;-61
2023/04/28 00:27:03;;;;;;;4.05;1.13;;;37.10;17.40;;;;;;5071772;28;20055;-63
2023/04/28 00:29:29;;;;;;;6.18;1.25;;;37.00;17.70;;;;;;5069997;28;20020;-62
2023/04/28 00:31:56;;;;;;;1.83;0.77;;;36.90;18.10;;;;;;5071273;28;20403;-63
2023/04/28 00:34:22;;;;;;;4.75;1.25;;;36.80;18.00;;;;;;5068167;28;20074;-63
2023/04/28 00:36:49;;;;;;;5.63;1.13;;;36.80;18.20;;;;;;5068854;28;20029;-64
2023/04/28 00:39:17;;;;;;;7.68;1.10;;;36.90;18.60;;;;;;5068663;28;20020;-61
2023/04/28 00:41:43;;;;;;;8.10;1.20;;;36.80;18.20;;;;;;5067827;28;20104;-61
2023/04/28 00:44:10;;;;;;;11.23;1.42;;;36.80;18.20;;;;;;5069484;28;20021;-62
2023/04/28 00:46:36;;;;;;;2.45;1.05;;;36.60;18.20;;;;;;5072119;28;20024;-63
2023/04/28 00:49:04;;;;;;;1.83;1.00;;;36.50;18.00;;;;;;5069091;28;20047;-64
2023/04/28 00:51:32;;;;;;;4.07;0.80;;;36.40;18.20;;;;;;5068610;28;20032;-68
2023/04/28 00:53:59;;;;;;;4.75;1.00;;;36.40;18.20;;;;;;5068406;28;20110;-63
2023/04/28 00:56:26;;;;;;;3.22;0.95;;;36.40;18.60;;;;;;5066764;28;20040;-63
2023/04/28 00:58:53;;;;;;;6.75;0.90;;;36.30;18.20;;;;;;5069551;28;20023;-62
2023/04/28 01:01:19;;;;;;;3.22;1.10;;;36.20;18.40;;;;;;5069179;28;20513;-65
2023/04/28 01:03:46;;;;;;;5.05;1.15;;;36.00;18.40;;;;;;5081883;28;20095;-64
2023/04/28 01:06:13;;;;;;;4.40;1.15;;;36.00;18.90;;;;;;5068737;28;20047;-66
2023/04/28 01:08:41;;;;;;;8.13;1.17;;;36.00;18.90;;;;;;5068552;28;20464;-63
2023/04/28 01:11:09;;;;;;;5.78;1.17;;;35.90;18.40;;;;;;5070621;28;20027;-61
2023/04/28 01:13:35;;;;;;;6.85;1.10;;;35.90;18.70;;;;;;5068718;28;20443;-61
2023/04/28 01:16:02;;;;;;;9.93;1.48;;;35.80;18.90;;;;;;5068317;28;20075;-63
2023/04/28 01:18:30;;;;;;;4.78;1.25;;;35.70;18.40;;;;;;5067853;28;20029;-63
2023/04/28 01:20:57;;;;;;;6.75;1.27;;;35.70;18.50;;;;;;5066713;28;20051;-62
2023/04/28 01:23:23;;;;;;;5.97;1.30;;;35.60;19.00;;;;;;5069454;28;20041;-63
2023/04/28 01:25:49;;;;;;;6.15;1.15;;;35.70;18.70;;;;;;5066926;28;20029;-63
2023/04/28 01:28:16;;;;;;;2.03;0.90;;;35.50;18.70;;;;;;5074954;28;20032;-63
2023/04/28 01:30:42;;;;;;;6.57;1.23;;;35.40;18.70;;;;;;5069423;28;20070;-61
2023/04/28 01:33:09;;;;;;;5.60;1.00;;;35.40;19.00;;;;;;5069221;28;20492;-63
2023/04/28 01:35:35;;;;;;;3.53;1.00;;;35.20;18.80;;;;;;5070121;28;20028;-64
2023/04/28 01:38:02;;;;;;;5.70;1.17;;;35.10;19.30;;;;;;5068925;28;20034;-65
2023/04/28 01:40:28;;;;;;;6.53;1.17;;;35.00;19.10;;;;;;5070642;28;20156;-63
2023/04/28 01:42:54;;;;;;;5.40;1.45;;;34.90;19.80;;;;;;5070692;28;20027;-64
2023/04/28 01:45:21;;;;;;;3.83;1.20;;;34.80;19.50;;;;;;5069074;28;20045;-62
2023/04/28 01:47:47;;;;;;;52.60;5.53;;;34.80;19.20;;;;;;5068104;28;20021;-61
2023/04/28 01:50:14;;;;;;;33.08;2.67;;;34.70;19.70;;;;;;5067420;28;20446;-62
2023/04/28 01:52:40;;;;;;;20.67;2.45;;;34.60;19.70;;;;;;5067727;28;20057;-61
2023/04/28 01:55:07;;;;;;;6.22;1.42;;;34.40;19.90;;;;;;5068608;28;20042;-59
2023/04/28 01:57:34;;;;;;;5.32;1.23;;;34.40;19.70;;;;;;5068510;28;20510;-61
2023/04/28 02:00:02;;;;;;;7.60;1.70;;;34.30;19.40;;;;;;5064567;28;20091;-62
2023/04/28 02:02:29;;;;;;;6.43;1.75;;;34.20;20.00;;;;;;5066631;28;20136;-61
2023/04/28 02:04:56;;;;;;;12.82;2.20;;;34.00;20.60;;;;;;5068559;28;20877;-63
2023/04/28 02:07:23;;;;;;;13.48;2.45;;;34.00;21.30;;;;;;5068017;28;20125;-65
2023/04/28 02:09:49;;;;;;;17.52;3.08;;;33.80;21.20;;;;;;5067327;28;20050;-63
2023/04/28 02:12:16;;;;;;;20.92;3.58;;;33.70;21.30;;;;;;5067597;28;20042;-63
2023/04/28 02:14:42;;;;;;;18.90;3.42;;;33.60;21.00;;;;;;5066573;28;20065;-63
2023/04/28 02:17:09;;;;;;;13.95;3.65;;;33.40;21.80;;;;;;5066996;28;20527;-65
2023/04/28 02:19:37;;;;;;;18.80;3.20;;;33.30;21.80;;;;;;5069774;28;20030;-64
2023/04/28 02:22:03;;;;;;;20.95;4.07;;;33.10;21.40;;;;;;5071663;28;20074;-64
2023/04/28 02:24:30;;;;;;;12.55;3.30;;;32.90;21.70;;;;;;5071398;28;20048;-63
2023/04/28 02:26:57;;;;;;;24.90;3.75;;;32.80;21.80;;;;;;5072882;28;20044;-62
2023/04/28 02:29:26;;;;;;;17.17;3.13;;;32.70;21.80;;;;;;5074908;28;20516;-62
2023/04/28 02:31:52;;;;;;;19.02;2.70;;;32.60;22.40;;;;;;5066679;28;20427;-61
2023/04/28 02:34:19;;;;;;;11.73;2.40;;;32.40;22.20;;;;;;5069521;28;20043;-61
2023/04/28 02:36:47;;;;;;;11.60;2.22;;;32.30;22.30;;;;;;5068167;28;20059;-62
2023/04/28 02:39:13;;;;;;;15.85;3.05;;;32.20;22.60;;;;;;5066300;28;20601;-61
2023/04/28 02:41:40;;;;;;;12.50;2.90;;;32.10;23.20;;;;;;5067794;28;20050;-62
2023/04/28 02:44:06;;;;;;;13.65;3.33;;;31.90;23.00;;;;;;5067661;28;20048;-59
2023/04/28 02:46:33;;;;;;;23.02;3.30;;;31.80;23.20;;;;;;5068929;28;20047;-59
2023/04/28 02:48:59;;;;;;;15.55;3.60;;;31.70;23.50;;;;;;5066876;28;20095;-61
2023/04/28 02:51:25;;;;;;;29.17;3.63;;;31.60;24.30;;;;;;5063738;28;21525;-59
2023/04/28 02:53:52;;;;;;;24.75;3.50;;;31.50;24.80;;;;;;5066689;28;20193;-60
2023/04/28 02:56:18;;;;;;;16.67;3.50;;;31.40;24.70;;;;;;5066828;28;20083;-61
2023/04/28 02:58:45;;;;;;;13.98;3.53;;;31.30;25.10;;;;;;5070868;28;20055;-59
2023/04/28 03:01:11;;;;;;;25.98;3.92;;;31.20;25.50;;;;;;5068436;28;20159;-62
2023/04/28 03:03:37;;;;;;;27.25;4.03;;;31.10;25.60;;;;;;5068009;28;20044;-65
2023/04/28 03:06:04;;;;;;;42.20;4.88;;;30.90;26.40;;;;;;5078865;28;20098;-64
2023/04/28 03:08:31;;;;;;;35.42;4.97;;;30.90;27.00;;;;;;5073342;28;20054;-63
2023/04/28 03:10:57;;;;;;;41.55;5.47;;;30.80;27.40;;;;;;5069616;28;20047;-62
2023/04/28 03:13:24;;;;;;;35.53;4.78;;;30.60;27.00;;;;;;5070489;28;20397;-63
2023/04/28 03:15:51;;;;;;;36.17;4.93;;;30.50;27.70;;;;;;5070024;28;20523;-65
2023/04/28 03:18:17;;;;;;;45.40;4.75;;;30.40;27.90;;;;;;5069481;28;20516;-61
2023/04/28 03:20:44;;;;;;;35.08;4.88;;;30.20;27.80;;;;;;5070258;28;20083;-61
2023/04/28 03:23:10;;;;;;;32.50;5.57;;;30.10;27.10;;;;;;5070222;28;20533;-62
2023/04/28 03:25:36;;;;;;;40.08;5.90;;;30.00;28.30;;;;;;5068361;28;20063;-62
2023/04/28 03:28:03;;;;;;;48.08;5.28;;;30.00;29.00;;;;;;5081409;28;20058;-62
2023/04/28 03:30:30;;;;;;;57.70;7.82;;;29.90;28.70;;;;;;5070367;28;20039;-63
2023/04/28 03:32:56;;;;;;;39.55;6.05;;;29.70;28.10;;;;;;5070597;28;20051;-63
2023/04/28 03:35:23;;;;;;;38.72;5.60;;;29.70;27.20;;;;;;5070509;28;20084;-62
2023/04/28 03:37:49;;;;;;;43.22;6.93;;;29.70;27.70;;;;;;5070641;28;20048;-61
2023/04/28 03:40:16;;;;;;;30.92;5.70;;;29.70;27.00;;;;;;5071185;28;20513;-63
2023/04/28 03:42:43;;;;;;;36.75;6.07;;;29.70;26.40;;;;;;5071147;28;20083;-62
2023/04/28 03:45:10;;;;;;;31.83;5.97;;;29.80;25.90;;;;;;5069156;28;20055;-62
2023/04/28 03:47:36;;;;;;;30.73;4.95;;;29.80;25.70;;;;;;5069631;28;20137;-64
2023/04/28 03:50:03;;;;;;;41.72;6.80;;;29.70;26.20;;;;;;5070812;28;20067;-62
2023/04/28 03:52:29;;;;;;;35.00;7.72;;;29.70;26.20;;;;;;5071267;28;20048;-62
2023/04/28 03:54:56;;;;;;;45.13;8.07;;;29.60;25.90;;;;;;5071441;28;20052;-63
2023/04/28 03:57:22;;;;;;;42.92;7.22;;;29.60;28.10;;;;;;5078631;28;20507;-72
2023/04/28 03:59:49;;;;;;;41.30;7.00;;;29.60;26.10;;;;;;5068273;28;20054;-66
2023/04/28 04:02:16;;;;;;;54.72;13.55;;;29.60;25.90;;;;;;5069772;28;20043;-64
2023/04/28 04:04:42;;;;;;;63.58;14.30;;;29.60;25.00;;;;;;5071338;28;20049;-63
2023/04/28 04:07:09;;;;;;;57.70;12.25;;;29.70;24.40;;;;;;5069480;28;20060;-64
2023/04/28 04:09:35;;;;;;;61.10;9.80;;;29.70;24.40;;;;;;5069509;28;20066;-65
2023/04/28 04:12:02;;;;;;;54.13;10.45;;;29.80;24.80;;;;;;5070419;28;20059;-61
2023/04/28 04:14:28;;;;;;;56.80;9.52;;;29.80;25.00;;;;;;5069634;28;20143;-63
2023/04/28 04:16:54;;;;;;;49.75;9.18;;;29.90;25.30;;;;;;5067441;28;20432;-64
2023/04/28 04:19:22;;;;;;;42.67;8.65;;;29.80;25.80;;;;;;5067988;28;20129;-64
2023/04/28 04:21:49;;;;;;;37.97;7.90;;;30.00;25.60;;;;;;5076673;28;20054;-66
2023/04/28 04:24:15;;;;;;;36.90;7.45;;;30.40;25.70;;;;;;5071796;28;20103;-65
2023/04/28 04:26:42;;;;;;;36.20;6.47;;;30.60;25.90;;;;;;5067890;28;20125;-66
2023/04/28 04:29:08;;;;;;;18.90;6.70;;;30.80;25.70;;;;;;5071448;28;20051;-65
2023/04/28 04:31:35;;;;;;;29.10;6.15;;;30.90;25.80;;;;;;5069727;28;20054;-66
2023/04/28 04:34:01;;;;;;;34.15;7.40;;;31.00;25.60;;;;;;5067076;28;20074;-66
2023/04/28 04:36:27;;;;;;;32.20;6.22;;;31.00;25.70;;;;;;5068645;28;20523;-66
2023/04/28 04:38:54;;;;;;;25.13;6.78;;;31.10;25.90;;;;;;5067968;28;20587;-65
2023/04/28 04:41:21;;;;;;;27.75;5.85;;;31.10;26.00;;;;;;5066465;28;20213;-68
2023/04/28 04:43:48;;;;;;;32.17;6.00;;;31.10;26.00;;;;;;5066936;28;20042;-67
2023/04/28 04:46:14;;;;;;;30.45;6.25;;;31.10;25.80;;;;;;5071537;28;20109;-68
2023/04/28 04:48:40;;;;;;;27.50;5.85;;;31.10;26.00;;;;;;5066905;28;20542;-64
2023/04/28 12:06:01;;;;;;;8.02;2.97;;;23.00;40.80;;;;;;5053138;27;2115301;-63
2023/04/28 12:08:30;;;;;;;8.10;2.70;;;22.70;41.60;;;;;;5104930;28;20079;-63
2023/04/28 12:11:13;;;;;;;11.15;2.60;;;22.70;42.00;;;;;;5107708;28;20169;-63
2023/04/28 12:13:40;;;;;;;11.70;2.95;;;22.70;42.00;;;;;;5105875;28;20084;-64
2023/04/28 12:16:08;;;;;;;14.82;3.00;;;22.70;42.00;;;;;;5104840;28;20108;-62
2023/04/28 12:18:37;;;;;;;13.32;3.45;;;22.80;41.80;;;;;;5105345;28;20082;-62
2023/04/28 12:21:04;;;;;;;21.63;4.10;;;22.70;42.00;;;;;;5105784;28;20075;-63
2023/04/28 12:23:32;;;;;;;25.52;4.50;;;22.70;41.10;;;;;;5104467;28;20068;-63
2023/04/28 12:25:59;;;;;;;20.48;4.18;;;22.70;41.20;;;;;;5103314;28;20067;-65
2023/04/28 12:28:41;;;;;;;24.42;5.93;;;22.60;41.60;;;;;;5106276;28;20103;-63
2023/04/28 12:31:08;;;;;;;29.27;7.13;;;22.50;41.80;;;;;;5105510;28;20079;-64
2023/04/28 12:33:39;;;;;;;63.95;9.38;;;22.60;41.80;;;;;;5105597;28;20102;-65
2023/04/28 12:36:06;;;;;;;238.95;18.67;;;22.60;41.60;;;;;;5106257;28;20067;-63
2023/04/28 12:38:32;;;;;;;41.85;9.45;;;22.50;41.80;;;;;;5102188;28;20088;-62
2023/04/28 12:40:59;;;;;;;40.47;9.60;;;22.60;42.30;;;;;;5084786;28;20075;-61
2023/04/28 12:43:27;;;;;;;53.40;13.88;;;22.50;42.70;;;;;;5084816;28;20074;-64
2023/04/28 12:45:55;;;;;;;66.95;15.95;;;22.60;43.20;;;;;;5085433;28;20554;-63
2023/04/28 12:48:26;;;;;;;66.85;17.85;;;22.50;43.20;;;;;;5086639;28;20103;-63
2023/04/28 12:50:52;;;;;;;107.00;18.25;;;22.60;43.00;;;;;;5086334;28;20515;-63
2023/04/28 12:53:18;;;;;;;65.88;16.73;;;22.50;43.00;;;;;;5085133;28;20068;-61
2023/04/28 12:55:45;;;;;;;51.83;14.80;;;22.50;42.70;;;;;;5085063;28;20098;-64
2023/04/28 12:58:11;;;;;;;74.15;16.98;;;22.30;42.10;;;;;;5084699;28;20092;-64
2023/04/28 13:00:40;;;;;;;80.20;16.67;;;22.30;42.10;;;;;;5085455;28;20075;-62
2023/04/28 13:03:07;;;;;;;71.75;15.32;;;22.20;41.80;;;;;;5085781;28;20174;-61
2023/04/28 13:05:34;;;;;;;69.28;14.85;;;22.10;42.10;;;;;;5085361;28;20463;-64
2023/04/28 13:08:00;;;;;;;62.63;14.45;;;22.20;42.10;;;;;;5085186;28;20458;-64
2023/04/28 13:10:27;;;;;;;71.90;14.70;;;22.20;41.90;;;;;;5085367;28;20157;-63
2023/04/28 13:12:54;;;;;;;82.43;15.40;;;22.30;42.10;;;;;;5085203;28;20075;-64
2023/04/28 13:15:20;;;;;;;62.08;14.60;;;22.30;42.20;;;;;;5083598;28;20068;-64
2023/04/28 13:17:47;;;;;;;67.95;15.63;;;22.30;42.90;;;;;;5071065;28;20078;-65
2023/04/28 13:20:14;;;;;;;81.55;15.63;;;22.20;42.70;;;;;;5072280;28;20075;-64
2023/04/28 13:22:40;;;;;;;80.45;16.13;;;22.20;42.50;;;;;;5053992;28;20520;-64
2023/04/28 13:25:08;;;;;;;77.38;16.90;;;22.20;42.10;;;;;;5071882;28;20152;-63
2023/04/28 13:27:34;;;;;;;76.07;15.50;;;22.20;42.90;;;;;;5070954;28;20427;-65
2023/04/28 13:30:02;;;;;;;73.40;15.88;;;22.20;43.20;;;;;;5072031;28;20171;-63
2023/04/28 13:32:29;;;;;;;84.75;17.38;;;22.20;43.00;;;;;;5072104;28;20072;-63
2023/04/28 13:34:55;;;;;;;71.25;16.65;;;22.20;43.70;;;;;;5072277;28;20067;-63
2023/04/28 13:37:21;;;;;;;85.15;18.25;;;22.20;44.30;;;;;;5071671;28;20484;-62
2023/04/28 13:39:48;;;;;;;97.97;17.45;;;22.20;44.40;;;;;;5071269;28;20087;-63
2023/04/28 13:42:15;;;;;;;258.88;24.95;;;22.20;44.40;;;;;;5071856;28;20154;-65
2023/04/28 13:44:41;;;;;;;163.93;21.13;;;22.20;43.90;;;;;;5071299;28;20113;-62
2023/04/28 13:47:09;;;;;;;124.50;17.17;;;22.20;43.60;;;;;;5071758;28;20129;-63
2023/04/28 13:49:36;;;;;;;129.57;17.83;;;22.30;44.50;;;;;;5070716;28;20067;-63
2023/04/28 13:52:02;;;;;;;91.57;16.23;;;22.30;44.30;;;;;;5068107;28;20192;-61
2023/04/28 13:54:29;;;;;;;71.22;16.65;;;22.40;44.50;;;;;;5071555;28;20166;-63
2023/04/28 13:56:56;;;;;;;69.82;17.00;;;22.50;45.20;;;;;;5071554;28;20076;-62
2023/04/28 13:59:22;;;;;;;77.05;15.35;;;22.60;45.20;;;;;;5069915;28;20540;-64
2023/04/28 14:01:49;;;;;;;82.25;16.88;;;22.60;44.70;;;;;;5071105;28;20096;-63
2023/04/28 14:04:15;;;;;;;60.70;15.20;;;22.70;44.30;;;;;;5069983;28;20111;-63
2023/04/28 14:06:42;;;;;;;86.00;16.08;;;22.80;44.50;;;;;;5070270;28;20131;-63
2023/04/28 14:09:09;;;;;;;77.15;15.70;;;22.90;45.40;;;;;;5070534;28;20075;-63
2023/04/28 14:11:35;;;;;;;59.30;14.15;;;22.90;44.70;;;;;;5070931;28;20066;-63
2023/04/28 14:14:02;;;;;;;78.70;14.38;;;23.10;45.20;;;;;;5069036;28;20149;-64
2023/04/28 14:16:29;;;;;;;71.00;13.68;;;23.20;44.00;;;;;;5070122;28;20075;-63
2023/04/28 14:18:55;;;;;;;71.53;13.95;;;23.30;42.80;;;;;;5053359;28;20075;-63
2023/04/28 14:21:22;;;;;;;71.18;14.00;;;23.40;41.50;;;;;;5069911;28;20080;-63
2023/04/28 14:23:48;;;;;;;117.00;15.98;;;23.50;41.20;;;;;;5052930;28;20186;-62
2023/04/28 14:26:15;;;;;;;144.88;19.00;;;23.60;40.60;;;;;;5070907;28;20118;-61
2023/04/28 14:28:41;;;;;;;167.50;18.38;;;23.70;41.30;;;;;;5070213;28;20085;-63
2023/04/28 14:31:08;;;;;;;96.95;15.07;;;23.90;40.60;;;;;;5070811;28;20653;-63
2023/04/28 14:33:34;;;;;;;90.00;15.40;;;24.00;39.90;;;;;;5070752;28;20074;-63
2023/04/28 14:36:01;;;;;;;76.95;14.60;;;24.10;40.10;;;;;;5069974;28;20427;-63
2023/04/28 14:38:29;;;;;;;78.78;14.38;;;24.30;39.80;;;;;;5070343;28;20507;-64
2023/04/28 14:40:56;;;;;;;69.97;13.20;;;24.40;39.60;;;;;;5070274;28;20112;-63
2023/04/28 14:43:23;;;;;;;75.15;13.27;;;24.60;39.80;;;;;;5066915;28;20069;-63
2023/04/28 14:45:50;;;;;;;86.03;13.38;;;24.80;40.00;;;;;;5070536;28;20545;-62
2023/04/28 14:48:16;;;;;;;53.17;11.13;;;25.00;39.10;;;;;;5070587;28;20065;-62
2023/04/28 14:50:43;;;;;;;56.10;12.25;;;25.20;37.90;;;;;;5070415;28;20058;-64
2023/04/28 14:53:09;;;;;;;68.50;11.70;;;25.40;37.50;;;;;;5068873;28;20147;-65
2023/04/28 14:55:36;;;;;;;70.95;12.05;;;25.60;36.40;;;;;;5050153;28;20071;-64
2023/04/28 14:58:03;;;;;;;47.10;11.32;;;25.80;35.70;;;;;;5069395;28;20110;-64
2023/04/28 15:00:30;;;;;;;50.78;9.40;;;26.00;34.70;;;;;;5070116;28;20067;-62
2023/04/28 15:02:56;;;;;;;37.78;8.85;;;26.20;33.80;;;;;;5070226;28;21335;-62
2023/04/28 15:05:23;;;;;;;32.50;8.27;;;26.40;33.50;;;;;;5052193;28;20446;-64
2023/04/28 15:07:49;;;;;;;33.10;7.13;;;26.70;32.70;;;;;;5069895;28;20103;-64
2023/04/28 15:10:16;;;;;;;26.42;7.10;;;27.00;30.90;;;;;;5069821;28;20087;-63
2023/04/28 15:12:43;;;;;;;32.83;7.70;;;27.20;31.20;;;;;;5071286;28;20056;-63
2023/04/28 15:15:10;;;;;;;31.67;7.40;;;27.40;31.50;;;;;;5069553;28;20482;-62
2023/04/28 15:17:36;;;;;;;42.80;7.88;;;27.50;30.60;;;;;;5069822;28;20516;-63
2023/04/28 15:20:04;;;;;;;40.47;7.68;;;27.70;30.90;;;;;;5069878;28;20089;-63
2023/04/28 15:22:30;;;;;;;32.33;6.32;;;27.90;31.00;;;;;;5069952;28;20061;-63
2023/04/28 15:24:56;;;;;;;36.40;7.13;;;28.00;31.00;;;;;;5069541;28;20073;-62
2023/04/28 15:27:23;;;;;;;35.00;7.40;;;28.20;30.20;;;;;;5069541;28;20060;-64
2023/04/28 15:29:49;;;;;;;38.97;7.25;;;28.30;29.80;;;;;;5069505;28;20057;-60
2023/04/28 15:32:16;;;;;;;34.20;6.78;;;28.50;30.30;;;;;;5069992;28;20539;-62
2023/04/28 15:34:43;;;;;;;34.42;7.70;;;28.70;30.40;;;;;;5069466;28;20061;-63
2023/04/28 15:37:41;;;;;;;26.70;6.03;;;28.90;30.00;;;;;;5069278;28;20064;-61
2023/04/28 15:40:13;;;;;;;29.63;5.55;;;29.00;28.60;;;;;;5069715;28;20090;-61
2023/04/28 15:42:47;;;;;;;23.10;5.68;;;29.20;28.60;;;;;;5069760;28;20057;-61
2023/04/28 15:45:15;;;;;;;18.50;4.65;;;29.40;28.20;;;;;;5068480;28;20056;-63
2023/04/28 15:47:42;;;;;;;23.38;4.50;;;29.50;27.90;;;;;;5068988;28;20061;-65
2023/04/28 15:50:10;;;;;;;22.33;5.40;;;29.80;28.60;;;;;;5068356;28;20452;-63
2023/04/28 15:52:46;;;;;;;21.30;4.55;;;29.90;27.80;;;;;;5069481;28;20099;-63
2023/04/28 15:55:13;;;;;;;16.73;4.45;;;30.00;27.30;;;;;;5068499;28;20446;-65
2023/04/28 15:57:41;;;;;;;19.08;5.28;;;30.20;27.70;;;;;;5068433;28;20047;-66
2023/04/28 16:00:08;;;;;;;19.98;5.28;;;30.40;28.40;;;;;;5067842;28;20108;-66
2023/04/28 16:02:36;;;;;;;13.82;4.20;;;30.70;27.60;;;;;;5067941;28;20520;-64
2023/04/28 16:05:03;;;;;;;20.98;6.35;;;30.80;27.80;;;;;;5069018;28;20175;-64
2023/04/28 16:07:36;;;;;;;25.70;4.80;;;31.00;27.80;;;;;;5069503;28;20116;-63
2023/04/28 16:10:07;;;;;;;28.25;8.10;;;31.30;27.60;;;;;;5069376;28;20035;-63
2023/04/28 16:12:33;;;;;;;24.75;4.63;;;31.50;27.20;;;;;;5067807;28;20040;-61
2023/04/28 16:15:00;;;;;;;23.55;4.95;;;31.50;27.00;;;;;;5069603;28;20038;-62
2023/04/28 16:17:30;;;;;;;18.52;4.22;;;31.70;26.90;;;;;;5068437;28;20051;-63
2023/04/28 16:19:56;;;;;;;23.08;7.07;;;31.90;26.80;;;;;;5068754;28;20051;-63
2023/04/28 16:22:24;;;;;;;15.80;7.00;;;32.10;26.70;;;;;;5068981;28;20052;-63
2023/04/28 16:24:50;;;;;;;27.38;5.15;;;32.10;26.40;;;;;;5068366;28;20093;-65
2023/04/28 16:27:17;;;;;;;25.13;6.45;;;32.40;26.20;;;;;;5068502;28;20036;-66
2023/04/28 16:29:44;;;;;;;22.40;4.43;;;32.50;26.30;;;;;;5068864;28;20129;-66
2023/04/28 16:32:11;;;;;;;28.20;5.05;;;32.70;26.40;;;;;;5067863;28;20047;-63
2023/04/28 16:34:37;;;;;;;40.13;7.30;;;32.90;26.50;;;;;;5068985;28;20044;-63
2023/04/28 16:37:06;;;;;;;57.92;8.93;;;33.10;27.00;;;;;;5068642;28;20069;-62
2023/04/28 16:39:32;;;;;;;65.53;10.55;;;33.10;27.00;;;;;;5068797;28;20060;-63
2023/04/28 16:42:02;;;;;;;44.08;5.90;;;33.20;27.50;;;;;;5069282;28;20071;-63
2023/04/28 16:44:32;;;;;;;36.20;7.53;;;33.40;26.40;;;;;;5067969;28;20050;-63
2023/04/28 16:46:58;;;;;;;53.30;8.93;;;33.60;27.10;;;;;;5048605;28;20042;-62
2023/04/28 16:49:25;;;;;;;36.97;8.98;;;33.80;27.60;;;;;;5067795;28;20150;-65
2023/04/28 16:52:05;;;;;;;60.78;13.25;;;33.90;27.10;;;;;;5071531;28;20039;-64
2023/04/28 16:54:32;;;;;;;46.38;7.70;;;34.20;27.20;;;;;;5072724;28;20042;-63
2023/04/28 16:57:01;;;;;;;58.15;7.82;;;34.40;26.70;;;;;;5072323;28;20092;-64
2023/04/28 16:59:32;;;;;;;46.28;9.10;;;34.50;26.60;;;;;;5071961;28;20361;-65
2023/04/28 17:02:00;;;;;;;44.22;7.88;;;34.60;26.80;;;;;;5072378;28;20032;-65
2023/04/28 17:04:27;;;;;;;50.70;7.55;;;34.70;27.00;;;;;;5072248;28;20538;-64
2023/04/28 17:06:53;;;;;;;49.45;7.53;;;34.80;26.50;;;;;;5071178;28;20081;-64
2023/04/28 17:09:21;;;;;;;45.72;7.80;;;34.90;26.10;;;;;;5051681;28;20034;-65
2023/04/28 17:11:48;;;;;;;62.03;9.60;;;34.90;26.40;;;;;;5066426;28;20025;-65
2023/04/28 17:14:15;;;;;;;35.33;7.57;;;34.90;26.50;;;;;;5068673;28;20111;-63
2023/04/28 17:16:45;;;;;;;46.53;9.00;;;35.10;26.40;;;;;;5069084;28;20028;-66
2023/04/28 17:19:12;;;;;;;42.10;7.82;;;35.30;26.00;;;;;;5068242;28;20047;-68
2023/04/28 17:21:38;;;;;;;34.17;7.13;;;35.50;26.40;;;;;;5070449;28;20055;-65
2023/04/28 17:24:04;;;;;;;33.03;8.10;;;35.70;26.00;;;;;;5071302;28;21085;-63
2023/04/28 17:26:31;;;;;;;53.30;7.90;;;35.80;25.70;;;;;;5053420;28;20028;-67
2023/04/28 17:28:58;;;;;;;39.55;7.35;;;35.90;25.80;;;;;;5071495;28;20150;-62
2023/04/28 17:31:25;;;;;;;28.55;6.55;;;35.90;24.90;;;;;;5071283;28;20031;-66
2023/04/28 17:33:53;;;;;;;37.83;6.50;;;36.00;25.40;;;;;;5070726;28;20024;-65
2023/04/28 17:36:22;;;;;;;53.38;7.03;;;36.10;24.90;;;;;;5069917;28;20056;-68
2023/04/28 17:38:51;;;;;;;31.77;5.13;;;36.40;24.70;;;;;;5070578;28;20113;-65
2023/04/28 17:41:18;;;;;;;26.83;5.75;;;36.60;23.90;;;;;;5069261;28;20024;-63
2023/04/28 17:43:45;;;;;;;41.50;7.63;;;36.10;23.90;;;;;;5070330;28;20036;-64
2023/04/28 17:46:13;;;;;;;12.45;3.78;;;36.40;24.40;;;;;;5069541;28;20146;-64
2023/04/28 17:48:41;;;;;;;20.60;4.00;;;36.60;23.80;;;;;;5068939;28;20042;-65
2023/04/28 17:51:07;;;;;;;16.38;4.38;;;36.90;23.50;;;;;;5068710;28;20171;-66
2023/04/28 17:53:34;;;;;;;21.08;4.75;;;37.00;23.60;;;;;;5051237;28;20471;-65
2023/04/28 17:56:01;;;;;;;25.33;4.90;;;37.20;23.90;;;;;;5068772;28;20046;-67
2023/04/28 17:58:28;;;;;;;17.17;4.03;;;37.40;23.50;;;;;;5068319;28;20039;-69
2023/04/28 18:01:06;;;;;;;21.08;3.95;;;37.50;22.90;;;;;;5068819;28;20040;-63
2023/04/28 18:03:37;;;;;;;18.02;4.03;;;37.70;22.80;;;;;;5070159;28;20775;-65
2023/04/28 18:06:06;;;;;;;14.98;3.90;;;37.90;22.70;;;;;;5069780;28;20511;-65
2023/04/28 18:08:34;;;;;;;17.52;3.88;;;37.90;23.10;;;;;;5053386;28;20020;-67
2023/04/28 18:11:00;;;;;;;20.90;4.10;;;37.80;22.90;;;;;;5070279;28;20023;-63
2023/04/28 18:13:27;;;;;;;16.52;3.42;;;38.00;23.30;;;;;;5070383;28;20145;-60
2023/04/28 18:15:53;;;;;;;16.83;3.47;;;38.30;23.00;;;;;;5069918;28;20032;-66
2023/04/28 18:18:20;;;;;;;17.55;3.40;;;38.20;22.60;;;;;;5069466;28;20104;-63
2023/04/28 18:20:47;;;;;;;12.25;3.10;;;38.30;22.90;;;;;;5069973;28;20050;-64
2023/04/28 18:23:13;;;;;;;16.08;3.78;;;38.40;22.60;;;;;;5070259;28;20032;-62
2023/04/28 18:25:40;;;;;;;15.40;3.53;;;38.40;22.70;;;;;;5070330;28;20523;-64
2023/04/28 18:28:09;;;;;;;10.02;3.78;;;38.40;21.80;;;;;;5069771;28;20071;-62
2023/04/28 18:33:08;;;;;;;13.10;3.30;;;38.50;22.10;;;;;;5070750;28;20035;-65
2023/04/28 18:35:35;;;;;;;14.80;3.88;;;38.20;22.00;;;;;;5068289;28;20025;-63
2023/04/28 18:38:03;;;;;;;15.40;3.20;;;38.00;22.00;;;;;;5069819;28;20101;-62
2023/04/28 18:40:37;;;;;;;12.93;2.60;;;38.10;22.40;;;;;;5070773;28;20035;-60
2023/04/28 18:43:05;;;;;;;11.73;2.60;;;38.30;21.80;;;;;;5069804;28;20030;-62
2023/04/28 18:45:37;;;;;;;19.38;3.40;;;38.30;21.40;;;;;;5070997;28;20036;-63
2023/04/28 18:48:04;;;;;;;15.00;3.47;;;38.40;22.30;;;;;;5066252;28;20086;-61
2023/04/28 18:50:32;;;;;;;12.35;3.85;;;38.00;22.10;;;;;;5069752;28;20020;-63
2023/04/28 18:53:01;;;;;;;11.15;3.35;;;38.10;22.00;;;;;;5070086;28;20017;-62
2023/04/28 18:55:27;;;;;;;8.30;2.75;;;38.10;22.10;;;;;;5070177;28;20029;-63
2023/04/28 18:57:54;;;;;;;21.52;3.20;;;38.30;22.40;;;;;;5068930;28;20373;-64
2023/04/28 19:00:21;;;;;;;20.67;3.83;;;38.50;21.70;;;;;;5069941;28;20078;-65
2023/04/28 19:02:47;;;;;;;11.77;3.17;;;38.30;21.70;;;;;;5069545;28;20111;-62
2023/04/28 19:05:14;;;;;;;15.98;3.45;;;38.10;21.90;;;;;;5069635;28;20048;-61
2023/04/28 19:07:40;;;;;;;13.57;3.60;;;38.30;22.30;;;;;;5069880;28;20021;-62
2023/04/28 19:10:07;;;;;;;11.32;2.60;;;38.10;21.50;;;;;;5069739;28;20017;-61
2023/04/28 19:12:34;;;;;;;8.80;2.78;;;38.50;21.50;;;;;;5069580;28;20560;-61
2023/04/28 19:15:00;;;;;;;10.23;2.80;;;38.70;20.80;;;;;;5067442;28;20024;-64
2023/04/28 19:17:27;;;;;;;12.00;2.30;;;38.40;20.40;;;;;;5068723;28;20317;-63
2023/04/28 19:19:57;;;;;;;13.63;2.50;;;38.10;21.00;;;;;;5069703;28;20103;-65
2023/04/28 19:22:35;;;;;;;13.00;2.50;;;38.00;20.90;;;;;;5069140;28;20036;-59
2023/04/28 19:25:03;;;;;;;7.22;2.45;;;38.40;20.90;;;;;;5067905;28;20020;-63
2023/04/28 19:27:35;;;;;;;8.93;2.47;;;38.70;20.70;;;;;;5068620;28;20024;-61
2023/04/28 19:30:02;;;;;;;8.90;1.70;;;39.10;20.90;;;;;;5067815;28;20052;-63
2023/04/28 19:32:29;;;;;;;8.65;2.05;;;39.30;19.90;;;;;;5068786;28;20496;-62
2023/04/28 19:34:55;;;;;;;12.23;2.13;;;39.60;19.20;;;;;;5069979;28;20103;-63
2023/04/28 19:37:22;;;;;;;9.95;2.38;;;39.80;19.70;;;;;;5070159;28;20032;-62
2023/04/28 19:39:49;;;;;;;10.82;2.38;;;39.80;19.80;;;;;;5069429;28;20058;-61
2023/04/28 19:42:16;;;;;;;10.68;2.00;;;39.90;19.70;;;;;;5064508;28;20028;-61
2023/04/28 19:44:43;;;;;;;7.78;2.25;;;39.80;19.70;;;;;;5065983;28;20037;-64
2023/04/28 19:47:11;;;;;;;5.03;2.22;;;39.90;20.10;;;;;;5066957;28;20027;-66
2023/04/28 19:49:40;;;;;;;10.32;2.10;;;40.00;19.20;;;;;;5067276;28;20024;-64
2023/04/28 19:52:08;;;;;;;6.05;2.00;;;40.00;20.20;;;;;;5067748;28;20028;-64